createdAt,value
2022-09-23T00:01:33.762Z,7.82
2022-09-23T00:04:36.575Z,7.79
2022-09-23T00:07:39.618Z,7.77
2022-09-23T00:10:42.548Z,7.65
2022-09-23T00:13:46.618Z,7.66
2022-09-23T00:16:50.772Z,7.58
2022-09-23T00:19:54.229Z,7.68
2022-09-23T00:22:57.793Z,7.65
2022-09-23T00:26:01.820Z,7.65
2022-09-23T00:29:04.487Z,7.66
2022-09-23T00:32:08.497Z,7.64
2022-09-23T00:35:11.017Z,7.69
2022-09-23T00:38:14.337Z,7.69
2022-09-23T00:41:17.240Z,7.58
2022-09-23T00:44:43.108Z,7.51
2022-09-23T00:47:49.233Z,7.38
2022-09-23T00:50:54.406Z,7.29
2022-09-23T00:53:57.333Z,7.24
2022-09-23T00:57:00.849Z,7.35
2022-09-23T01:00:03.848Z,7.29
2022-09-23T01:03:09.395Z,7.29
2022-09-23T01:06:13.103Z,7.25
2022-09-23T01:09:15.578Z,7.29
2022-09-23T01:12:28.087Z,7.30
2022-09-23T01:15:38.261Z,7.12
2022-09-23T01:18:46.580Z,6.99
2022-09-23T01:21:54.489Z,7.08
2022-09-23T01:25:10.916Z,7.20
2022-09-23T01:28:27.558Z,7.17
2022-09-23T01:31:35.922Z,7.10
2022-09-23T01:34:46.081Z,7.13
2022-09-23T01:37:52.205Z,7.10
2022-09-23T01:41:00.686Z,6.97
2022-09-23T01:44:05.819Z,6.99
2022-09-23T01:47:14.196Z,7.01
2022-09-23T01:50:37.071Z,6.94
2022-09-23T01:53:44.979Z,6.89
2022-09-23T01:56:52.527Z,6.91
2022-09-23T01:59:58.349Z,6.92
2022-09-23T02:03:06.040Z,6.90
2022-09-23T02:06:11.691Z,6.84
2022-09-23T02:09:16.338Z,6.89
2022-09-23T02:12:20.336Z,6.82
2022-09-23T02:15:24.966Z,6.76
2022-09-23T02:18:31.734Z,6.79
2022-09-23T02:21:36.178Z,6.72
2022-09-23T02:24:39.785Z,6.57
2022-09-23T02:27:47.561Z,6.70
2022-09-23T02:30:52.778Z,6.65
2022-09-23T02:33:58.795Z,6.68
2022-09-23T02:37:09.418Z,6.65
2022-09-23T02:40:17.425Z,6.62
2022-09-23T02:43:23.505Z,6.59
2022-09-23T02:46:26.339Z,6.52
2022-09-23T02:49:32.627Z,6.48
2022-09-23T02:52:38.182Z,6.47
2022-09-23T02:55:42.250Z,6.41
2022-09-23T02:58:46.919Z,6.31
2022-09-23T03:02:14.374Z,6.31
2022-09-23T03:05:23.848Z,6.40
2022-09-23T03:08:37.349Z,6.34
2022-09-23T03:11:42.245Z,6.37
2022-09-23T03:14:50.799Z,6.33
2022-09-23T03:17:57.697Z,6.30
2022-09-23T03:21:03.708Z,6.25
2022-09-23T03:24:08.620Z,6.31
2022-09-23T03:27:13.993Z,6.25
2022-09-23T03:30:16.691Z,6.22
2022-09-23T03:33:24.715Z,6.24
2022-09-23T03:36:54.029Z,6.28
2022-09-23T03:40:02.991Z,6.23
2022-09-23T03:43:05.954Z,6.19
2022-09-23T03:46:08.760Z,6.21
2022-09-23T03:49:15.871Z,6.11
2022-09-23T03:52:22.591Z,6.17
2022-09-23T03:55:25.246Z,6.14
2022-09-23T03:58:27.903Z,6.15
2022-09-23T04:01:30.753Z,6.09
2022-09-23T04:04:34.284Z,6.02
2022-09-23T04:07:38.607Z,5.99
2022-09-23T04:10:41.936Z,6.05
2022-09-23T04:13:44.561Z,5.99
2022-09-23T04:16:47.305Z,5.92
2022-09-23T04:19:49.886Z,5.88
2022-09-23T04:22:53.896Z,5.93
2022-09-23T04:25:56.522Z,5.89
2022-09-23T04:28:59.490Z,5.91
2022-09-23T04:32:02.524Z,5.98
2022-09-23T04:35:06.141Z,5.95
2022-09-23T04:38:11.446Z,5.97
2022-09-23T04:41:14.329Z,5.96
2022-09-23T04:44:17.137Z,6.01
2022-09-23T04:47:19.672Z,6.05
2022-09-23T04:50:22.574Z,5.99
2022-09-23T04:53:26.624Z,6.00
2022-09-23T04:56:32.698Z,6.01
2022-09-23T04:59:35.306Z,6.05
2022-09-23T05:02:43.890Z,6.13
2022-09-23T05:05:46.429Z,6.16
2022-09-23T05:08:52.194Z,6.18
2022-09-23T05:11:55.235Z,6.16
2022-09-23T05:14:58.065Z,6.16
2022-09-23T05:18:02.534Z,6.28
2022-09-23T05:21:05.673Z,6.25
2022-09-23T05:24:09.702Z,6.32
2022-09-23T05:27:12.806Z,6.28
2022-09-23T05:30:15.682Z,6.32
2022-09-23T05:33:18.377Z,6.38
2022-09-23T05:36:21.669Z,6.48
2022-09-23T05:39:25.840Z,6.55
2022-09-23T05:42:28.608Z,6.68
2022-09-23T05:45:32.105Z,6.69
2022-09-23T05:48:36.102Z,6.85
2022-09-23T05:51:38.960Z,6.95
2022-09-23T05:54:43.491Z,7.06
2022-09-23T05:57:46.023Z,7.21
2022-09-23T06:00:49.898Z,7.31
2022-09-23T06:03:52.894Z,7.44
2022-09-23T06:06:55.532Z,7.57
2022-09-23T06:09:59.826Z,7.67
2022-09-23T06:13:02.842Z,7.81
2022-09-23T06:16:07.934Z,7.98
2022-09-23T06:19:10.832Z,8.12
2022-09-23T06:22:16.994Z,8.31
2022-09-23T06:25:23.076Z,8.49
2022-09-23T06:28:25.626Z,8.58
2022-09-23T06:31:28.620Z,8.67
2022-09-23T06:34:43.474Z,8.80
2022-09-23T06:37:49.462Z,8.95
2022-09-23T06:40:54.593Z,9.14
2022-09-23T06:43:57.318Z,9.34
2022-09-23T06:47:00.025Z,9.53
2022-09-23T06:50:02.853Z,9.61
2022-09-23T06:53:05.652Z,9.71
2022-09-23T06:56:11.177Z,9.88
2022-09-23T06:59:17.060Z,10.08
2022-09-23T07:02:19.766Z,10.39
2022-09-23T07:05:22.690Z,10.78
2022-09-23T07:08:27.149Z,11.08
2022-09-23T07:11:31.064Z,11.40
2022-09-23T07:14:34.222Z,11.72
2022-09-23T07:17:37.466Z,12.04
2022-09-23T07:20:40.208Z,12.43
2022-09-23T07:23:43.170Z,12.78
2022-09-23T07:26:47.249Z,12.97
2022-09-23T07:29:50.661Z,13.31
2022-09-23T07:32:53.619Z,13.50
2022-09-23T07:35:56.687Z,13.79
2022-09-23T07:39:00.666Z,13.90
2022-09-23T07:42:05.759Z,14.16
2022-09-23T07:45:10.025Z,14.39
2022-09-23T07:48:12.540Z,14.58
2022-09-23T07:51:18.560Z,14.82
2022-09-23T07:54:21.527Z,14.89
2022-09-23T07:57:25.670Z,14.90
2022-09-23T08:00:28.373Z,15.08
2022-09-23T08:03:31.153Z,15.12
2022-09-23T08:06:34.192Z,15.25
2022-09-23T08:09:41.486Z,15.28
2022-09-23T08:12:45.899Z,15.23
2022-09-23T08:15:55.185Z,15.25
2022-09-23T08:18:58.285Z,15.20
2022-09-23T08:22:01.148Z,15.40
2022-09-23T08:25:05.296Z,15.70
2022-09-23T08:28:12.795Z,15.89
2022-09-23T08:31:15.585Z,16.12
2022-09-23T08:34:19.495Z,16.02
2022-09-23T08:37:22.548Z,16.09
2022-09-23T08:40:25.628Z,16.27
2022-09-23T08:43:31.360Z,16.07
2022-09-23T08:46:37.688Z,16.15
2022-09-23T08:49:46.091Z,16.28
2022-09-23T08:52:52.042Z,16.50
2022-09-23T08:55:56.268Z,16.68
2022-09-23T08:59:07.881Z,16.89
2022-09-23T09:02:16.610Z,16.94
2022-09-23T09:05:25.599Z,17.04
2022-09-23T09:08:32.045Z,17.00
2022-09-23T09:11:37.246Z,17.09
2022-09-23T09:14:48.976Z,17.33
2022-09-23T09:17:59.235Z,17.31
2022-09-23T09:21:09.960Z,16.91
2022-09-23T09:24:18.505Z,17.14
2022-09-23T09:27:21.291Z,17.03
2022-09-23T09:30:25.639Z,17.07
2022-09-23T09:33:32.491Z,16.64
2022-09-23T09:36:39.516Z,16.81
2022-09-23T09:39:42.328Z,17.22
2022-09-23T09:42:48.181Z,17.39
2022-09-23T09:46:02.151Z,17.45
2022-09-23T09:49:10.538Z,17.56
2022-09-23T09:52:23.488Z,17.69
2022-09-23T09:55:28.485Z,17.58
2022-09-23T09:58:44.114Z,17.87
2022-09-23T10:01:48.282Z,17.78
2022-09-23T10:04:57.258Z,17.75
2022-09-23T10:08:17.627Z,17.86
2022-09-23T10:11:20.318Z,17.88
2022-09-23T10:14:23.692Z,17.92
2022-09-23T10:17:29.323Z,17.79
2022-09-23T10:20:36.411Z,17.80
2022-09-23T10:23:41.600Z,18.12
2022-09-23T10:26:51.679Z,18.37
2022-09-23T10:29:56.878Z,18.53
2022-09-23T10:33:01.252Z,18.45
2022-09-23T10:36:03.893Z,18.62
2022-09-23T10:39:23.908Z,19.51
2022-09-23T10:42:49.762Z,19.57
2022-09-23T10:46:11.594Z,19.83
2022-09-23T10:49:34.907Z,19.88
2022-09-23T10:52:46.949Z,20.14
2022-09-23T10:56:05.651Z,19.87
2022-09-23T10:59:27.215Z,19.51
2022-09-23T11:02:47.682Z,19.36
2022-09-23T11:05:58.914Z,19.35
2022-09-23T11:09:15.601Z,19.42
2022-09-23T11:12:26.811Z,19.49
2022-09-23T11:15:39.152Z,19.93
2022-09-23T11:19:03.268Z,19.93
2022-09-23T11:22:20.222Z,19.99
2022-09-23T11:25:37.000Z,20.10
2022-09-23T11:29:04.538Z,20.19
2022-09-23T11:32:22.759Z,20.38
2022-09-23T11:35:27.491Z,20.12
2022-09-23T11:38:36.998Z,20.06
2022-09-23T11:41:40.999Z,20.02
2022-09-23T11:44:47.085Z,19.96
2022-09-23T11:47:52.544Z,20.43
2022-09-23T11:50:58.981Z,20.56
2022-09-23T11:54:05.394Z,20.52
2022-09-23T11:57:12.444Z,20.38
2022-09-23T12:00:19.047Z,20.39
2022-09-23T12:03:39.171Z,20.33
2022-09-23T12:06:46.459Z,20.73
2022-09-23T12:09:58.668Z,20.64
2022-09-23T12:13:06.585Z,21.03
2022-09-23T12:16:30.801Z,21.41
2022-09-23T12:19:48.645Z,22.37
2022-09-23T12:22:59.850Z,22.64
2022-09-23T12:26:07.500Z,22.64
2022-09-23T12:29:13.374Z,23.13
2022-09-23T12:32:18.590Z,23.43
2022-09-23T12:35:23.635Z,23.20
2022-09-23T12:38:27.567Z,23.90
2022-09-23T12:41:35.348Z,24.39
2022-09-23T12:44:42.043Z,24.86
2022-09-23T12:47:44.639Z,26.45
2022-09-23T12:50:59.617Z,32.60
2022-09-23T12:54:24.327Z,35.41
2022-09-23T12:57:43.648Z,37.27
2022-09-23T13:01:07.415Z,37.35
2022-09-23T13:04:53.109Z,36.47
2022-09-23T13:08:00.261Z,36.61
2022-09-23T13:11:04.383Z,37.12
2022-09-23T13:14:08.900Z,37.11
2022-09-23T13:17:24.281Z,36.07
2022-09-23T13:20:36.530Z,33.92
2022-09-23T13:23:39.192Z,34.34
2022-09-23T13:26:46.375Z,33.92
2022-09-23T13:29:53.174Z,32.51
2022-09-23T13:33:04.189Z,33.73
2022-09-23T13:36:13.041Z,32.40
2022-09-23T13:39:16.415Z,32.58
2022-09-23T13:42:25.520Z,33.26
2022-09-23T13:45:32.085Z,30.88
2022-09-23T13:48:34.835Z,28.55
2022-09-23T13:51:37.689Z,28.31
2022-09-23T13:54:48.784Z,28.83
2022-09-23T13:57:58.924Z,28.91
2022-09-23T14:01:03.466Z,29.43
2022-09-23T14:04:06.537Z,31.16
2022-09-23T14:07:10.969Z,33.17
2022-09-23T14:10:18.872Z,35.12
2022-09-23T14:13:25.892Z,37.18
2022-09-23T14:16:32.767Z,36.04
2022-09-23T14:19:36.599Z,32.66
2022-09-23T14:22:39.142Z,31.27
2022-09-23T14:25:41.940Z,29.37
2022-09-23T14:28:44.973Z,30.13
2022-09-23T14:31:56.932Z,31.18
2022-09-23T14:35:09.419Z,29.90
2022-09-23T14:38:30.409Z,29.58
2022-09-23T14:41:38.664Z,26.38
2022-09-23T14:44:41.320Z,28.18
2022-09-23T14:47:48.498Z,29.43
2022-09-23T14:50:53.313Z,30.66
2022-09-23T14:53:55.947Z,32.56
2022-09-23T14:56:58.706Z,33.44
2022-09-23T15:00:03.964Z,33.53
2022-09-23T15:03:17.673Z,32.10
2022-09-23T15:06:20.778Z,33.30
2022-09-23T15:09:26.046Z,33.84
2022-09-23T15:12:28.763Z,31.93
2022-09-23T15:15:31.620Z,29.23
2022-09-23T15:18:35.738Z,27.66
2022-09-23T15:21:41.266Z,27.13
2022-09-23T15:24:45.906Z,26.76
2022-09-23T15:28:03.444Z,25.52
2022-09-23T15:31:09.173Z,24.84
2022-09-23T15:34:13.270Z,23.94
2022-09-23T15:37:15.814Z,23.77
2022-09-23T15:40:22.168Z,23.62
2022-09-23T15:43:26.652Z,23.39
2022-09-23T15:46:33.645Z,23.13
2022-09-23T15:49:39.550Z,22.87
2022-09-23T15:52:45.125Z,22.39
2022-09-23T15:55:50.266Z,21.64
2022-09-23T15:58:52.936Z,21.64
2022-09-23T16:01:56.789Z,21.20
2022-09-23T16:05:02.923Z,21.05
2022-09-23T16:08:08.904Z,20.69
2022-09-23T16:11:16.309Z,20.70
2022-09-23T16:14:20.369Z,20.62
2022-09-23T16:17:23.176Z,20.38
2022-09-23T16:20:29.076Z,20.22
2022-09-23T16:23:38.620Z,20.08
2022-09-23T16:26:43.170Z,19.87
2022-09-23T16:29:45.899Z,19.47
2022-09-23T16:32:48.551Z,19.36
2022-09-23T16:35:52.756Z,19.09
2022-09-23T16:38:56.317Z,18.90
2022-09-23T16:41:59.207Z,18.77
2022-09-23T16:45:02.069Z,18.54
2022-09-23T16:48:06.419Z,18.33
2022-09-23T16:51:15.369Z,18.12
2022-09-23T16:54:19.278Z,17.96
2022-09-23T16:57:22.010Z,17.77
2022-09-23T17:00:42.416Z,17.61
2022-09-23T17:03:45.219Z,17.47
2022-09-23T17:06:50.911Z,17.37
2022-09-23T17:09:53.734Z,17.29
2022-09-23T17:12:56.376Z,17.10
2022-09-23T17:15:59.090Z,16.90
2022-09-23T17:19:07.307Z,16.69
2022-09-23T17:22:11.434Z,16.47
2022-09-23T17:25:14.247Z,16.30
2022-09-23T17:28:16.762Z,16.19
2022-09-23T17:31:19.793Z,16.03
2022-09-23T17:34:23.975Z,15.88
2022-09-23T17:37:28.103Z,15.85
2022-09-23T17:40:30.874Z,15.70
2022-09-23T17:43:33.622Z,15.59
2022-09-23T17:46:36.283Z,15.37
2022-09-23T17:49:38.842Z,15.18
2022-09-23T17:52:42.862Z,14.98
2022-09-23T17:55:45.448Z,14.98
2022-09-23T17:58:49.403Z,14.84
2022-09-23T18:01:51.976Z,14.84
2022-09-23T18:04:54.646Z,14.78
2022-09-23T18:08:00.194Z,14.65
2022-09-23T18:11:15.668Z,14.61
2022-09-23T18:14:19.907Z,14.55
2022-09-23T18:17:22.530Z,14.56
2022-09-23T18:20:25.197Z,14.54
2022-09-23T18:23:29.282Z,14.50
2022-09-23T18:26:31.944Z,14.45
2022-09-23T18:29:35.237Z,14.45
2022-09-23T18:32:37.815Z,14.40
2022-09-23T18:35:40.406Z,14.39
2022-09-23T18:38:44.387Z,14.35
2022-09-23T18:41:49.479Z,14.40
2022-09-23T18:44:54.390Z,14.39
2022-09-23T18:48:10.981Z,14.35
2022-09-23T18:51:15.035Z,14.30
2022-09-23T18:54:19.856Z,14.32
2022-09-23T18:57:22.561Z,14.33
2022-09-23T19:00:25.217Z,14.29
2022-09-23T19:03:27.985Z,14.32
2022-09-23T19:06:32.407Z,14.31
2022-09-23T19:09:36.437Z,14.25
2022-09-23T19:12:39.265Z,14.31
2022-09-23T19:15:41.917Z,14.28
2022-09-23T19:18:46.476Z,14.13
2022-09-23T19:21:49.085Z,14.12
2022-09-23T19:24:53.116Z,14.20
2022-09-23T19:27:55.777Z,14.24
2022-09-23T19:30:59.029Z,14.19
2022-09-23T19:34:02.881Z,14.14
2022-09-23T19:37:05.729Z,13.95
2022-09-23T19:40:11.015Z,13.93
2022-09-23T19:43:14.354Z,13.83
2022-09-23T19:46:17.102Z,13.76
2022-09-23T19:49:19.727Z,13.73
2022-09-23T19:52:22.801Z,13.76
2022-09-23T19:55:28.448Z,13.69
2022-09-23T19:58:31.060Z,13.62
2022-09-23T20:01:34.263Z,13.59
2022-09-23T20:04:37.535Z,13.57
2022-09-23T20:07:42.221Z,13.55
2022-09-23T20:10:46.840Z,13.51
2022-09-23T20:13:53.688Z,13.66
2022-09-23T20:16:56.320Z,13.56
2022-09-23T20:19:59.311Z,13.49
2022-09-23T20:23:02.001Z,13.43
2022-09-23T20:26:24.629Z,13.34
2022-09-23T20:29:27.208Z,13.33
2022-09-23T20:32:29.749Z,13.31
2022-09-23T20:35:33.151Z,13.29
2022-09-23T20:38:36.061Z,13.39
2022-09-23T20:41:40.406Z,13.40
2022-09-23T20:44:44.878Z,13.40
2022-09-23T20:47:47.500Z,13.38
2022-09-23T20:50:52.932Z,13.34
2022-09-23T20:53:55.572Z,13.32
2022-09-23T20:57:00.447Z,13.25
2022-09-23T21:00:03.161Z,13.17
2022-09-23T21:03:06.369Z,13.11
2022-09-23T21:06:10.096Z,13.16
2022-09-23T21:09:12.722Z,13.02
2022-09-23T21:12:17.097Z,12.92
2022-09-23T21:15:19.824Z,12.90
2022-09-23T21:18:24.100Z,12.87
2022-09-23T21:21:27.215Z,12.91
2022-09-23T21:27:54.419Z,12.87
2022-09-23T21:30:59.111Z,12.87
2022-09-23T21:34:03.829Z,12.85
2022-09-23T21:37:06.993Z,12.89
2022-09-23T21:40:28.155Z,12.87
2022-09-23T21:43:34.886Z,12.83
2022-09-23T21:46:37.875Z,12.86
2022-09-23T21:49:41.557Z,12.73
2022-09-23T21:52:44.848Z,12.62
2022-09-23T21:55:48.855Z,12.57
2022-09-23T21:58:54.460Z,12.52
2022-09-23T22:01:57.226Z,12.49
2022-09-23T22:04:59.829Z,12.39
2022-09-23T22:08:02.889Z,12.35
2022-09-23T22:11:07.580Z,12.31
2022-09-23T22:14:13.539Z,12.32
2022-09-23T22:17:16.444Z,12.33
2022-09-23T22:20:19.131Z,12.39
2022-09-23T22:23:21.854Z,12.33
2022-09-23T22:26:25.270Z,12.39
2022-09-23T22:29:47.028Z,12.29
2022-09-23T22:32:54.890Z,12.17
2022-09-23T22:36:02.655Z,12.15
2022-09-23T22:39:05.652Z,12.14
2022-09-23T22:42:08.564Z,12.17
2022-09-23T22:45:13.289Z,12.16
2022-09-23T22:48:16.013Z,12.16
2022-09-23T22:51:18.580Z,12.20
2022-09-23T22:54:22.240Z,12.20
2022-09-23T22:57:24.773Z,12.25
2022-09-23T23:00:29.074Z,12.34
2022-09-23T23:03:34.354Z,12.32
2022-09-23T23:06:37.463Z,12.34
2022-09-23T23:09:40.088Z,12.38
2022-09-23T23:12:42.824Z,12.35
2022-09-23T23:15:46.768Z,12.41
2022-09-23T23:18:49.439Z,12.44
2022-09-23T23:21:52.569Z,12.40
2022-09-23T23:24:55.607Z,12.35
2022-09-23T23:27:58.384Z,12.39
2022-09-23T23:31:05.290Z,12.46
2022-09-23T23:34:09.207Z,12.45
2022-09-23T23:37:11.877Z,12.53
2022-09-23T23:40:14.436Z,12.52
2022-09-23T23:43:17.212Z,12.49
2022-09-23T23:46:21.479Z,12.47
2022-09-23T23:49:24.107Z,12.45
2022-09-23T23:52:26.748Z,12.43
2022-09-23T23:55:29.421Z,12.45
2022-09-23T23:58:32.146Z,12.48
